Time;durP1;ratioP1;P1;durP2;ratioP2;P2;SDS_P1;SDS_P2;PMS_P1;PMS_P2;Temp;Humidity;BMP_temperature;BMP_pressure;BME280_temperature;BME280_humidity;BME280_pressure;Samples;Min_cycle;Max_cycle;Signal;HPM_P1;HPM_P2
2023/07/10 00:00:52;;;;;;;2.72;2.53;;;;;;;20.28;67.20;95143.41;5092630;28;20200;-43
2023/07/10 00:03:19;;;;;;;3.63;3.33;;;;;;;20.27;66.95;95140.00;5109830;28;20265;-44
2023/07/10 00:05:46;;;;;;;2.95;2.72;;;;;;;20.24;67.37;95139.56;5112786;28;20227;-44
2023/07/10 00:08:13;;;;;;;3.15;2.72;;;;;;;20.20;67.86;95133.94;5112766;28;20196;-43
2023/07/10 00:10:40;;;;;;;3.72;3.42;;;;;;;20.15;67.62;95133.69;5112495;28;20578;-43
2023/07/10 00:13:10;;;;;;;2.97;2.67;;;;;;;20.13;67.51;95125.28;5113209;28;20200;-44
2023/07/10 00:15:36;;;;;;;2.95;2.72;;;;;;;20.08;67.81;95127.66;5112957;28;20562;-44
2023/07/10 00:18:13;;;;;;;3.15;2.80;;;;;;;20.03;67.95;95133.41;5112753;28;20199;-42
2023/07/10 00:20:40;;;;;;;3.20;2.90;;;;;;;20.02;67.87;95130.97;5112275;28;20193;-43
2023/07/10 00:23:06;;;;;;;3.17;2.90;;;;;;;20.00;67.69;95133.75;5112439;28;20181;-45
2023/07/10 00:25:37;;;;;;;2.95;2.65;;;;;;;19.91;67.87;95121.09;5113070;28;20500;-46
2023/07/10 00:28:12;;;;;;;2.55;2.35;;;;;;;19.96;67.67;95131.72;5111929;28;20197;-44
2023/07/10 00:30:40;;;;;;;3.08;2.75;;;;;;;19.91;67.86;95139.25;5112302;28;20611;-44
2023/07/10 00:33:11;;;;;;;3.83;3.10;;;;;;;19.79;67.95;95120.75;5112109;28;20640;-45
2023/07/10 00:35:41;;;;;;;4.28;2.80;;;;;;;19.88;68.02;95137.81;5094027;28;20203;-42
2023/07/10 00:38:34;;;;;;;4.28;2.72;;;;;;;19.86;68.10;95136.41;5112305;28;20250;-43
2023/07/10 00:41:06;;;;;;;5.32;2.63;;;;;;;19.86;68.33;95145.00;5094115;28;20201;-43
2023/07/10 00:43:37;;;;;;;3.33;3.10;;;;;;;19.83;68.79;95137.59;5112385;28;20291;-43
2023/07/10 00:46:13;;;;;;;3.05;2.85;;;;;;;19.77;69.18;95123.56;5111821;28;20217;-43
2023/07/10 00:48:47;;;;;;;4.85;3.00;;;;;;;19.63;69.27;95108.00;5112468;28;20204;-43
2023/07/10 00:51:22;;;;;;;3.27;2.97;;;;;;;19.74;69.51;95138.69;5111953;28;20251;-43
2023/07/10 00:53:49;;;;;;;5.90;2.90;;;;;;;19.66;70.02;95134.41;5112177;28;20246;-44
2023/07/10 00:56:19;;;;;;;2.75;2.55;;;;;;;19.63;70.25;95131.38;5111976;28;20259;-44
2023/07/10 00:58:49;;;;;;;2.93;2.70;;;;;;;19.63;70.35;95136.56;5111844;28;20288;-44
2023/07/10 01:01:19;;;;;;;3.20;2.83;;;;;;;19.61;70.68;95141.13;5111831;28;20204;-43
2023/07/10 01:03:50;;;;;;;5.10;3.00;;;;;;;19.53;71.26;95137.63;5112380;28;20223;-44
2023/07/10 01:06:22;;;;;;;5.77;3.40;;;;;;;19.45;71.05;95123.94;5112098;28;20204;-44
2023/07/10 01:08:53;;;;;;;5.30;3.43;;;;;;;19.50;71.22;95134.56;5093539;28;20270;-42
2023/07/10 01:11:20;;;;;;;3.33;3.03;;;;;;;19.45;70.93;95134.31;5111475;28;20232;-45
2023/07/10 01:13:50;;;;;;;5.43;3.53;;;;;;;19.45;71.27;95134.31;5111377;28;20197;-45
2023/07/10 01:16:18;;;;;;;5.60;2.97;;;;;;;19.23;71.39;95115.31;5111461;28;20226;-42
2023/07/10 01:18:46;;;;;;;3.53;2.80;;;;;;;19.37;71.57;95135.22;5111444;28;20279;-43
2023/07/10 01:21:23;;;;;;;3.60;3.13;;;;;;;19.37;71.71;95131.81;5111746;28;20201;-45
2023/07/10 01:23:50;;;;;;;3.23;2.93;;;;;;;19.34;71.76;95134.78;5111823;28;20188;-42
2023/07/10 01:26:17;;;;;;;4.27;2.60;;;;;;;19.15;71.89;95113.59;5111773;28;20193;-45
2023/07/10 01:28:44;;;;;;;3.13;2.90;;;;;;;19.32;72.02;95141.94;5093074;28;20653;-44
2023/07/10 01:31:15;;;;;;;5.80;3.23;;;;;;;19.27;72.53;95138.09;5092766;28;20235;-43
2023/07/10 01:33:45;;;;;;;5.27;2.97;;;;;;;19.29;72.52;95140.50;5111390;28;20215;-44
2023/07/10 01:36:19;;;;;;;3.77;3.33;;;;;;;19.14;71.96;95114.59;5111171;28;20272;-43
2023/07/10 01:38:48;;;;;;;3.03;2.83;;;;;;;19.23;72.21;95136.06;5093115;28;20200;-43
2023/07/10 01:41:25;;;;;;;3.37;3.07;;;;;;;19.22;72.19;95135.25;5110994;28;20595;-43
2023/07/10 01:43:52;;;;;;;3.20;2.90;;;;;;;19.12;72.14;95134.69;5111553;28;20267;-46
2023/07/10 01:46:22;;;;;;;3.20;2.90;;;;;;;19.07;72.51;95129.25;5110888;28;20185;-44
2023/07/10 01:48:51;;;;;;;3.13;2.87;;;;;;;19.05;72.70;95134.63;5110952;28;20200;-45
2023/07/10 01:51:21;;;;;;;2.97;2.70;;;;;;;19.02;73.05;95136.78;5110863;28;20252;-43
2023/07/10 01:53:48;;;;;;;3.83;3.10;;;;;;;19.00;73.30;95136.97;5110871;28;20706;-45
2023/07/10 01:56:17;;;;;;;4.00;2.87;;;;;;;18.83;73.63;95114.78;5110613;28;20197;-44
2023/07/10 01:58:44;;;;;;;5.13;3.53;;;;;;;18.98;73.94;95146.69;5111420;28;20204;-44
2023/07/10 02:01:11;;;;;;;3.53;3.23;;;;;;;18.90;74.64;95133.81;5110671;28;20204;-43
2023/07/10 02:03:40;;;;;;;5.23;3.17;;;;;;;18.82;75.46;95113.16;5110845;28;20607;-44
2023/07/10 02:06:06;;;;;;;4.13;3.00;;;;;;;18.97;75.73;95139.91;5092680;28;20193;-43
2023/07/10 02:08:34;;;;;;;4.00;3.60;;;;;;;18.95;76.13;95149.63;5110619;28;20640;-44
2023/07/10 02:11:01;;;;;;;5.53;4.10;;;;;;;18.86;76.42;95142.91;5109505;28;20216;-43
2023/07/10 02:13:28;;;;;;;3.80;3.50;;;;;;;18.78;76.98;95141.22;5111072;28;20189;-45
2023/07/10 02:15:57;;;;;;;4.27;3.70;;;;;;;18.76;77.11;95150.97;5110869;28;20195;-45
2023/07/10 02:18:24;;;;;;;4.20;3.60;;;;;;;18.74;77.42;95139.19;5110250;28;20189;-42
2023/07/10 02:20:52;;;;;;;4.43;3.37;;;;;;;18.74;77.41;95144.34;5110405;28;20707;-44
2023/07/10 02:23:19;;;;;;;5.93;4.20;;;;;;;18.71;77.91;95155.88;5110346;28;20645;-44
2023/07/10 02:25:49;;;;;;;4.10;3.70;;;;;;;18.69;78.22;95150.03;5110765;28;20200;-42
2023/07/10 02:28:16;;;;;;;6.73;4.07;;;;;;;18.67;79.13;95153.78;5110397;28;20305;-44
2023/07/10 02:30:43;;;;;;;6.17;3.83;;;;;;;18.62;78.93;95153.50;5109994;28;20224;-44
2023/07/10 02:33:11;;;;;;;8.43;4.33;;;;;;;18.54;79.57;95164.72;5109948;28;20196;-44
2023/07/10 02:35:41;;;;;;;8.90;4.27;;;;;;;18.46;79.83;95160.41;5109691;28;20396;-44
2023/07/10 02:38:09;;;;;;;7.90;4.83;;;;;;;18.26;80.39;95147.16;5075281;28;20734;-46
2023/07/10 02:40:36;;;;;;;5.97;4.23;;;;;;;18.32;80.68;95162.97;5110609;28;20197;-43
2023/07/10 02:43:04;;;;;;;6.13;4.70;;;;;;;18.26;80.94;95165.28;5110005;28;20687;-44
2023/07/10 02:45:32;;;;;;;11.97;4.40;;;;;;;18.27;81.35;95172.06;5110307;28;20185;-45
2023/07/10 02:48:01;;;;;;;5.13;4.03;;;;;;;18.22;81.48;95174.38;5109518;28;20610;-43
2023/07/10 02:50:28;;;;;;;8.83;4.63;;;;;;;18.11;81.29;95164.41;5110338;28;20220;-43
2023/07/10 02:52:56;;;;;;;6.20;4.23;;;;;;;18.07;81.47;95155.38;5109739;28;20671;-41
2023/07/10 02:55:26;;;;;;;4.33;3.93;;;;;;;18.16;81.09;95169.06;5110174;28;20339;-45
2023/07/10 02:57:53;;;;;;;7.13;4.30;;;;;;;18.15;80.99;95178.63;5091830;28;20192;-42
2023/07/10 03:00:22;;;;;;;5.83;3.77;;;;;;;18.14;80.89;95176.22;5110377;28;20191;-45
2023/07/10 03:02:53;;;;;;;4.67;3.93;;;;;;;18.18;81.07;95180.06;5110309;28;20337;-42
2023/07/10 03:05:20;;;;;;;4.20;3.80;;;;;;;18.11;81.10;95177.34;5110191;28;20193;-44
2023/07/10 03:07:47;;;;;;;5.77;4.17;;;;;;;18.14;80.88;95179.59;5109816;28;20181;-44
2023/07/10 03:10:13;;;;;;;4.00;3.60;;;;;;;17.64;80.80;95094.66;5109494;28;20746;-45
2023/07/10 03:12:41;;;;;;;4.17;3.77;;;;;;;18.14;80.92;95179.59;5110056;28;20189;-41
2023/07/10 03:15:09;;;;;;;4.47;3.70;;;;;;;18.17;80.81;95181.03;5109518;28;20295;-45
2023/07/10 03:17:38;;;;;;;6.23;4.13;;;;;;;18.15;81.02;95183.00;5110198;28;20202;-44
2023/07/10 03:20:07;;;;;;;5.70;4.40;;;;;;;18.17;80.76;95181.84;5109613;28;20200;-44
2023/07/10 03:22:34;;;;;;;6.90;4.20;;;;;;;18.18;81.04;95185.25;5112670;28;20254;-44
2023/07/10 03:25:01;;;;;;;5.90;3.93;;;;;;;18.22;81.09;95189.91;5113606;28;20196;-44
2023/07/10 03:27:29;;;;;;;9.53;4.63;;;;;;;18.23;81.22;95183.75;5114240;28;20192;-44
2023/07/10 03:29:56;;;;;;;8.27;4.20;;;;;;;18.14;81.40;95177.03;5113234;28;20229;-43
2023/07/10 03:32:23;;;;;;;5.30;4.30;;;;;;;18.19;81.59;95187.66;5113864;28;20197;-43
2023/07/10 03:34:55;;;;;;;5.60;4.47;;;;;;;18.17;81.99;95186.22;5112952;28;20191;-43
2023/07/10 03:37:22;;;;;;;7.63;4.53;;;;;;;18.25;82.11;95189.53;5113706;28;20192;-45
2023/07/10 03:39:51;;;;;;;9.40;4.97;;;;;;;18.24;82.05;95179.38;5095268;28;20649;-48
2023/07/10 03:42:20;;;;;;;11.73;4.63;;;;;;;18.35;82.04;95191.09;5113425;28;20193;-44
2023/07/10 03:44:47;;;;;;;8.10;4.63;;;;;;;18.38;81.84;95188.97;5113063;28;20200;-43
2023/07/10 03:47:15;;;;;;;8.63;4.57;;;;;;;18.39;81.56;95189.78;5113334;28;20193;-46
2023/07/10 03:49:42;;;;;;;10.83;4.77;;;;;;;18.41;81.79;95206.75;5095322;28;20584;-42
2023/07/10 03:52:11;;;;;;;11.53;5.13;;;;;;;18.39;81.82;95198.34;5113243;28;20224;-44
2023/07/10 03:54:40;;;;;;;5.10;4.50;;;;;;;18.39;81.77;95205.31;5113190;28;20189;-44
2023/07/10 03:57:07;;;;;;;5.57;4.60;;;;;;;18.42;81.90;95204.97;5094753;28;20239;-45
2023/07/10 03:59:36;;;;;;;9.47;5.03;;;;;;;18.41;81.33;95201.59;5113218;28;20192;-43
2023/07/10 04:02:11;;;;;;;7.87;5.53;;;;;;;18.44;80.97;95210.81;5112949;28;20185;-44
2023/07/10 04:04:40;;;;;;;11.30;6.07;;;;;;;18.41;80.14;95211.94;5113137;28;20541;-44
2023/07/10 04:07:08;;;;;;;6.63;5.27;;;;;;;18.42;79.89;95218.72;5112221;28;20193;-46
2023/07/10 04:09:37;;;;;;;13.23;5.40;;;;;;;18.38;79.92;95206.28;5078104;28;20201;-43
2023/07/10 04:12:05;;;;;;;8.33;4.67;;;;;;;18.49;79.76;95216.25;5112809;28;20315;-43
2023/07/10 04:14:36;;;;;;;7.93;5.00;;;;;;;18.59;79.07;95223.78;5112501;28;20203;-45
2023/07/10 04:17:03;;;;;;;7.47;4.47;;;;;;;18.64;78.96;95224.88;5095070;28;20220;-44
2023/07/10 04:19:31;;;;;;;9.27;4.50;;;;;;;18.65;78.53;95220.50;5112956;28;20200;-44
2023/07/10 04:21:58;;;;;;;6.17;4.60;;;;;;;18.71;78.57;95222.44;5112408;28;20642;-43
2023/07/10 04:24:27;;;;;;;7.40;4.73;;;;;;;18.78;78.26;95224.16;5112705;28;20247;-45
2023/07/10 04:26:56;;;;;;;6.80;4.43;;;;;;;18.83;78.52;95217.66;5112320;28;20270;-45
2023/07/10 04:29:23;;;;;;;6.70;5.13;;;;;;;18.69;78.22;95195.84;5112713;28;20225;-44
2023/07/10 04:31:49;;;;;;;7.30;5.17;;;;;;;18.78;78.11;95211.19;5112334;28;20224;-44
2023/07/10 04:34:17;;;;;;;8.90;5.17;;;;;;;18.84;78.12;95209.69;5112002;28;20579;-44
2023/07/10 04:36:44;;;;;;;9.13;6.73;;;;;;;18.94;77.97;95214.59;5112689;28;20246;-45
2023/07/10 04:39:11;;;;;;;11.60;6.43;;;;;;;19.02;77.83;95220.53;5112825;28;20181;-45
2023/07/10 04:41:39;;;;;;;11.83;6.90;;;;;;;19.05;77.88;95220.19;5112960;28;20189;-42
2023/07/10 04:44:07;;;;;;;16.20;7.20;;;;;;;19.08;77.99;95219.00;5112793;28;20193;-43
2023/07/10 04:46:34;;;;;;;16.73;6.03;;;;;;;19.12;77.99;95212.47;5112712;28;20197;-46
2023/07/10 04:49:01;;;;;;;12.40;6.80;;;;;;;19.27;77.69;95220.28;5112185;28;20200;-44
2023/07/10 04:51:28;;;;;;;9.93;6.17;;;;;;;19.26;77.39;95206.53;5113890;28;20704;-44
2023/07/10 04:53:55;;;;;;;10.50;6.30;;;;;;;19.36;77.31;95211.44;5112522;28;20599;-46
2023/07/10 04:56:22;;;;;;;11.93;6.30;;;;;;;19.47;77.38;95210.16;5112045;28;20193;-46
2023/07/10 04:58:53;;;;;;;11.40;7.07;;;;;;;19.60;76.95;95202.53;5111804;28;20648;-44
2023/07/10 05:01:24;;;;;;;12.67;6.50;;;;;;;19.73;76.26;95202.75;5112519;28;20196;-44
2023/07/10 05:03:52;;;;;;;17.02;6.35;;;;;;;19.85;76.11;95202.28;5112182;28;20201;-44
2023/07/10 05:06:20;;;;;;;9.10;6.67;;;;;;;19.98;75.91;95205.81;5111630;28;20271;-47
2023/07/10 05:08:48;;;;;;;10.40;6.70;;;;;;;20.09;75.54;95201.97;5093754;28;20185;-44
2023/07/10 05:11:15;;;;;;;12.57;6.87;;;;;;;20.27;75.63;95199.75;5111853;28;20707;-45
2023/07/10 05:13:43;;;;;;;11.13;6.50;;;;;;;20.47;74.76;95196.53;5111394;28;20254;-45
2023/07/10 05:16:10;;;;;;;12.93;6.10;;;;;;;20.68;74.22;95188.75;5093719;28;20215;-44
2023/07/10 05:18:38;;;;;;;9.18;5.88;;;;;;;21.11;72.19;95212.03;5111616;28;20652;-46
2023/07/10 05:21:05;;;;;;;12.00;6.38;;;;;;;21.49;70.57;95204.69;5111788;28;20234;-44
2023/07/10 05:23:32;;;;;;;7.20;5.78;;;;;;;21.97;68.67;95204.69;5111515;28;20201;-43
2023/07/10 05:26:02;;;;;;;6.55;4.90;;;;;;;22.50;66.39;95215.28;5112117;28;20181;-46
2023/07/10 05:28:30;;;;;;;8.95;6.03;;;;;;;23.02;65.27;95218.94;5111398;28;20263;-43
2023/07/10 05:30:59;;;;;;;9.95;6.53;;;;;;;23.50;63.92;95215.25;5111805;28;20231;-45
2023/07/10 05:33:26;;;;;;;7.97;5.50;;;;;;;23.99;62.61;95212.06;5112061;28;20203;-45
2023/07/10 05:35:56;;;;;;;13.48;5.35;;;;;;;24.36;61.47;95217.53;5111298;28;20572;-45
2023/07/10 05:38:25;;;;;;;9.52;5.18;;;;;;;24.76;60.10;95223.31;5112026;28;20268;-46
2023/07/10 05:40:52;;;;;;;5.85;4.35;;;;;;;25.14;55.65;95208.56;5111852;28;20219;-44
2023/07/10 05:43:18;;;;;;;12.07;3.90;;;;;;;25.39;55.97;95211.94;5112135;28;20184;-48
2023/07/10 05:45:46;;;;;;;5.82;3.78;;;;;;;25.76;53.75;95217.16;5110661;28;20193;-45
2023/07/10 05:48:13;;;;;;;3.60;3.30;;;;;;;26.09;53.32;95208.94;5111571;28;20280;-46
2023/07/10 05:50:43;;;;;;;6.00;3.10;;;;;;;26.39;52.78;95211.56;5111219;28;20189;-44
2023/07/10 05:53:11;;;;;;;3.88;3.53;;;;;;;26.67;51.21;95207.53;5111325;28;20621;-44
2023/07/10 05:55:38;;;;;;;4.78;3.50;;;;;;;26.91;50.21;95206.56;5111392;28;20181;-48
2023/07/10 05:58:05;;;;;;;3.70;3.15;;;;;;;27.21;50.17;95227.50;5111656;28;20193;-46
2023/07/10 06:00:31;;;;;;;3.80;3.50;;;;;;;27.45;49.58;95228.28;5111579;28;20185;-45
2023/07/10 06:02:58;;;;;;;4.82;3.03;;;;;;;27.61;48.97;95210.22;5111493;28;20280;-46
2023/07/10 06:05:25;;;;;;;3.92;3.40;;;;;;;27.87;48.31;95208.94;5111517;28;20200;-46
2023/07/10 06:07:52;;;;;;;10.60;3.72;;;;;;;28.01;47.14;95216.31;5111279;28;20653;-47
2023/07/10 06:10:21;;;;;;;6.40;3.55;;;;;;;28.15;47.80;95218.66;5110994;28;20636;-45
2023/07/10 06:12:47;;;;;;;8.93;3.85;;;;;;;28.17;47.58;95201.63;5110964;28;20632;-45
2023/07/10 06:15:14;;;;;;;5.53;3.33;;;;;;;28.49;46.87;95222.22;5110589;28;20199;-43
2023/07/10 06:17:41;;;;;;;5.30;3.38;;;;;;;28.65;47.09;95218.00;5110254;28;20265;-44
2023/07/10 06:20:08;;;;;;;4.82;3.88;;;;;;;28.91;46.37;95216.59;5110955;28;20189;-43
2023/07/10 06:22:35;;;;;;;7.15;3.38;;;;;;;29.11;45.86;95218.78;5110322;28;20209;-46
2023/07/10 06:25:02;;;;;;;4.50;3.25;;;;;;;29.22;45.69;95220.50;5110758;28;20185;-45
2023/07/10 06:27:30;;;;;;;5.30;3.80;;;;;;;29.34;45.91;95217.78;5110173;28;20189;-45
2023/07/10 06:29:58;;;;;;;5.03;3.25;;;;;;;29.56;45.57;95221.28;5110152;28;20229;-45
2023/07/10 06:32:25;;;;;;;9.05;3.85;;;;;;;29.64;44.52;95206.88;5109812;28;20635;-45
2023/07/10 06:34:52;;;;;;;3.55;3.17;;;;;;;29.84;43.74;95222.97;5110170;28;20193;-44
2023/07/10 06:37:19;;;;;;;5.00;3.58;;;;;;;29.91;44.12;95228.84;5110060;28;20226;-44
2023/07/10 06:40:03;;;;;;;6.00;3.38;;;;;;;30.10;44.11;95224.06;5110541;28;20255;-46
2023/07/10 06:42:31;;;;;;;4.25;3.75;;;;;;;30.20;43.57;95226.03;5110075;28;20204;-45
2023/07/10 06:44:58;;;;;;;4.82;3.55;;;;;;;30.25;43.90;95226.09;5110503;28;20192;-44
2023/07/10 06:47:26;;;;;;;5.70;3.28;;;;;;;30.29;43.49;95236.94;5111053;28;20196;-45
2023/07/10 06:49:53;;;;;;;4.35;3.03;;;;;;;30.27;43.71;95234.56;5076797;28;20204;-44
2023/07/10 06:52:21;;;;;;;5.95;4.30;;;;;;;30.28;43.59;95235.34;5091965;28;20264;-44
2023/07/10 06:54:48;;;;;;;4.95;3.78;;;;;;;30.30;43.76;95230.63;5110284;28;20197;-45
2023/07/10 06:57:15;;;;;;;4.32;3.75;;;;;;;30.34;44.68;95226.44;5091012;28;20396;-43
2023/07/10 06:59:43;;;;;;;7.15;4.13;;;;;;;30.46;43.52;95222.59;5109748;28;20200;-46
2023/07/10 07:02:13;;;;;;;4.25;3.63;;;;;;;30.42;43.79;95221.50;5110147;28;20188;-45
2023/07/10 07:04:39;;;;;;;7.82;3.40;;;;;;;30.45;44.22;95221.03;5110364;28;20220;-45
2023/07/10 07:07:06;;;;;;;4.10;3.55;;;;;;;30.55;44.07;95222.16;5109998;28;20196;-45
2023/07/10 07:09:33;;;;;;;5.68;3.80;;;;;;;30.68;43.98;95224.38;5109629;28;20663;-44
2023/07/10 07:12:00;;;;;;;7.63;3.42;;;;;;;30.68;43.57;95225.19;5109969;28;20243;-44
2023/07/10 07:14:27;;;;;;;6.28;3.38;;;;;;;30.76;42.90;95229.25;5109373;28;20189;-45
2023/07/10 07:16:55;;;;;;;5.38;3.30;;;;;;;30.76;41.79;95233.75;5109875;28;20250;-44
2023/07/10 07:19:22;;;;;;;4.38;3.83;;;;;;;30.74;41.99;95228.69;5109623;28;20189;-44
2023/07/10 07:21:49;;;;;;;5.72;3.85;;;;;;;30.56;42.52;95221.91;5109857;28;20266;-43
2023/07/10 07:24:15;;;;;;;3.92;3.28;;;;;;;30.69;42.36;95218.06;5109719;28;20189;-45
2023/07/10 07:26:42;;;;;;;6.53;3.50;;;;;;;30.77;42.69;95212.34;5095929;28;20192;-45
2023/07/10 07:29:09;;;;;;;3.35;3.00;;;;;;;30.85;42.59;95203.97;5088915;28;20222;-44
2023/07/10 07:31:38;;;;;;;3.72;2.90;;;;;;;31.10;41.73;95208.66;5089969;28;20232;-43
2023/07/10 07:34:07;;;;;;;4.25;3.15;;;;;;;31.02;42.29;95209.13;5109024;28;20182;-45
2023/07/10 07:36:34;;;;;;;3.70;3.05;;;;;;;31.13;41.78;95209.97;5105464;28;20193;-44
2023/07/10 07:39:02;;;;;;;5.65;3.40;;;;;;;30.87;41.50;95216.91;5093221;28;20262;-43
2023/07/10 07:41:28;;;;;;;4.07;3.20;;;;;;;30.72;42.38;95213.09;5088161;28;20254;-43
2023/07/10 07:43:55;;;;;;;3.45;3.15;;;;;;;30.76;41.82;95218.69;5088797;28;20629;-43
2023/07/10 07:46:22;;;;;;;3.65;3.35;;;;;;;30.76;41.97;95205.47;5097475;28;20193;-44
2023/07/10 07:48:49;;;;;;;7.90;3.10;;;;;;;30.83;42.24;95213.19;5109864;28;20185;-43
2023/07/10 07:51:17;;;;;;;4.72;3.60;;;;;;;31.04;42.69;95209.63;5109025;28;20220;-44
2023/07/10 07:53:44;;;;;;;4.88;3.10;;;;;;;31.19;41.65;95212.41;5108864;28;20181;-43
2023/07/10 07:56:12;;;;;;;6.22;3.58;;;;;;;31.32;41.71;95213.03;5108859;28;20185;-43
2023/07/10 07:58:38;;;;;;;4.90;3.33;;;;;;;31.36;41.54;95214.91;5105325;28;20200;-45
2023/07/10 08:01:05;;;;;;;6.80;2.97;;;;;;;31.41;41.05;95201.72;5097823;28;20197;-44
2023/07/10 08:03:33;;;;;;;5.63;3.60;;;;;;;31.38;41.14;95207.50;5100844;28;20207;-44
2023/07/10 08:06:00;;;;;;;4.50;3.60;;;;;;;31.35;41.14;95184.25;5105547;28;20192;-45
2023/07/10 08:08:28;;;;;;;6.85;3.15;;;;;;;31.50;41.53;95195.97;5099769;28;20193;-43
2023/07/10 08:10:55;;;;;;;3.25;2.85;;;;;;;31.56;40.28;95203.66;5109283;28;20185;-44
2023/07/10 08:13:22;;;;;;;3.55;3.00;;;;;;;31.62;39.97;95199.19;5103805;28;20650;-44
2023/07/10 08:15:48;;;;;;;5.03;3.00;;;;;;;31.64;39.70;95200.50;5090143;28;20617;-43
2023/07/10 08:18:15;;;;;;;8.05;3.17;;;;;;;31.55;40.16;95196.78;5096945;28;20194;-44
2023/07/10 08:20:42;;;;;;;4.63;2.95;;;;;;;31.66;40.92;95194.97;5091982;28;20712;-44
2023/07/10 08:23:09;;;;;;;3.33;3.03;;;;;;;31.73;40.73;95198.97;5092028;28;20664;-44
2023/07/10 08:25:37;;;;;;;5.38;2.75;;;;;;;31.72;40.27;95186.78;5092339;28;20197;-43
2023/07/10 08:28:04;;;;;;;4.95;2.83;;;;;;;31.88;39.82;95181.59;5091766;28;20643;-44
2023/07/10 08:30:31;;;;;;;4.72;3.05;;;;;;;31.96;39.43;95195.13;5097829;28;20193;-44
2023/07/10 08:32:58;;;;;;;5.18;3.20;;;;;;;32.00;39.98;95184.81;5111996;28;20248;-44
2023/07/10 08:35:24;;;;;;;3.83;2.85;;;;;;;32.16;40.27;95190.94;5111743;28;20616;-43
2023/07/10 08:37:52;;;;;;;4.80;2.90;;;;;;;32.13;38.75;95196.78;5112231;28;20189;-43
2023/07/10 08:40:26;;;;;;;3.50;2.95;;;;;;;32.09;39.06;95188.56;5112390;28;20216;-44
2023/07/10 08:42:54;;;;;;;3.53;3.22;;;;;;;32.21;38.92;95191.75;5112386;28;20191;-44
2023/07/10 08:45:32;;;;;;;2.75;2.55;;;;;;;32.11;39.09;95194.38;5112240;28;20556;-44
2023/07/10 08:48:14;;;;;;;4.07;3.05;;;;;;;32.23;39.93;95191.50;5112082;28;20197;-45
2023/07/10 08:50:42;;;;;;;4.75;2.92;;;;;;;32.23;38.78;95187.00;5112118;28;20196;-45
2023/07/10 08:53:12;;;;;;;3.35;3.10;;;;;;;32.20;38.49;95195.44;5112000;28;20285;-44
2023/07/10 08:55:49;;;;;;;4.70;2.70;;;;;;;32.08;39.03;95186.16;5112257;28;20228;-44
2023/07/10 08:58:21;;;;;;;3.65;3.05;;;;;;;32.09;38.98;95185.91;5112313;28;20662;-44
2023/07/10 09:00:51;;;;;;;4.85;2.92;;;;;;;31.96;39.88;95184.53;5112665;28;20193;-43
2023/07/10 09:03:34;;;;;;;3.88;3.33;;;;;;;32.14;38.79;95188.56;5111902;28;20188;-44
2023/07/10 09:06:04;;;;;;;4.22;2.72;;;;;;;32.19;38.44;95182.47;5112146;28;20257;-45
2023/07/10 09:08:32;;;;;;;3.58;3.28;;;;;;;32.19;37.74;95185.13;5111731;28;20619;-45
2023/07/10 09:11:02;;;;;;;3.67;3.00;;;;;;;32.05;38.50;95184.84;5111883;28;20197;-44
2023/07/10 09:13:38;;;;;;;6.60;3.05;;;;;;;31.95;38.45;95174.19;5111665;28;20722;-45
2023/07/10 09:16:13;;;;;;;3.33;3.03;;;;;;;32.09;38.21;95180.63;5111493;28;20189;-43
2023/07/10 09:18:47;;;;;;;2.88;2.67;;;;;;;32.26;37.82;95175.09;5111226;28;20302;-43
2023/07/10 09:21:17;;;;;;;4.13;3.38;;;;;;;32.39;37.04;95185.19;5111115;28;20659;-43
2023/07/10 09:23:46;;;;;;;3.78;3.25;;;;;;;32.12;36.73;95174.78;5111418;28;20238;-45
2023/07/10 09:26:15;;;;;;;3.17;2.83;;;;;;;31.80;37.17;95176.78;5111396;28;20276;-43
2023/07/10 09:28:45;;;;;;;4.03;3.17;;;;;;;31.78;37.92;95169.13;5111552;28;20224;-44
2023/07/10 09:31:26;;;;;;;5.75;2.92;;;;;;;31.93;37.74;95176.31;5111290;28;20660;-44
2023/07/10 09:34:00;;;;;;;2.80;2.50;;;;;;;31.87;38.11;95172.09;5111496;28;20216;-44
2023/07/10 09:36:27;;;;;;;3.53;3.00;;;;;;;31.90;37.98;95182.13;5111080;28;20651;-44
2023/07/10 09:38:54;;;;;;;5.45;2.53;;;;;;;31.96;37.75;95178.47;5111091;28;20197;-46
2023/07/10 09:41:23;;;;;;;3.50;3.00;;;;;;;31.93;38.21;95171.81;5110871;28;20181;-44
2023/07/10 09:43:55;;;;;;;3.38;3.08;;;;;;;31.87;37.29;95164.94;5111249;28;20203;-44
2023/07/10 09:46:24;;;;;;;3.95;2.97;;;;;;;31.77;37.38;95175.44;5110663;28;20556;-45
2023/07/10 09:48:54;;;;;;;4.13;2.67;;;;;;;31.64;37.98;95167.97;5111742;28;20613;-45
2023/07/10 09:51:21;;;;;;;4.68;2.47;;;;;;;31.41;38.39;95135.63;5111740;28;20189;-44
2023/07/10 09:53:53;;;;;;;3.13;2.90;;;;;;;31.46;36.18;95150.72;5111126;28;20239;-45
2023/07/10 09:56:27;;;;;;;3.42;3.13;;;;;;;31.33;36.83;95165.19;5111113;28;20185;-45
2023/07/10 09:58:57;;;;;;;3.22;3.03;;;;;;;31.26;37.88;95164.59;5111470;28;20188;-44
2023/07/10 10:01:28;;;;;;;2.80;2.60;;;;;;;31.37;37.74;95155.69;5110831;28;20230;-44
2023/07/10 10:03:56;;;;;;;3.65;2.90;;;;;;;31.28;37.72;95136.09;5111028;28;20651;-44
2023/07/10 10:06:26;;;;;;;3.72;2.75;;;;;;;31.52;37.21;95152.34;5110408;28;20193;-44
2023/07/10 10:08:53;;;;;;;3.45;2.63;;;;;;;31.51;35.63;95139.38;5110622;28;20621;-45
2023/07/10 10:11:32;;;;;;;9.40;3.38;;;;;;;31.52;35.96;95133.03;5110694;28;20200;-45
2023/07/10 10:14:03;;;;;;;4.53;3.28;;;;;;;31.52;36.13;95125.91;5110818;28;20224;-44
2023/07/10 10:16:40;;;;;;;3.10;2.80;;;;;;;31.38;36.69;95108.91;5110116;28;20193;-44
2023/07/10 10:19:15;;;;;;;3.15;2.88;;;;;;;31.59;37.20;95130.94;5108831;28;20211;-44
2023/07/10 10:21:42;;;;;;;3.20;2.92;;;;;;;31.67;36.33;95125.94;5110478;28;20211;-45
2023/07/10 10:24:11;;;;;;;2.72;2.53;;;;;;;31.39;36.16;95089.34;5110492;28;20204;-44
2023/07/10 10:26:57;;;;;;;3.30;3.00;;;;;;;31.55;34.97;95120.09;5110164;28;20196;-45
2023/07/10 10:29:54;;;;;;;3.08;2.78;;;;;;;31.48;36.50;95098.41;5102995;28;20723;-43
2023/07/10 10:32:32;;;;;;;3.63;3.08;;;;;;;31.48;36.63;95122.19;5089135;28;20254;-43
2023/07/10 10:35:17;;;;;;;5.70;3.08;;;;;;;31.23;36.35;95114.91;5089904;28;20193;-45
2023/07/10 10:37:59;;;;;;;5.82;3.00;;;;;;;31.21;37.42;95125.72;5090363;28;20611;-44
2023/07/10 10:40:38;;;;;;;5.07;3.05;;;;;;;31.33;36.23;95122.91;5089847;28;20182;-45
2023/07/10 10:43:27;;;;;;;4.80;3.05;;;;;;;31.42;36.05;95123.22;5089910;28;20182;-44
2023/07/10 10:46:04;;;;;;;2.95;2.75;;;;;;;31.52;35.96;95119.81;5089996;28;20216;-45
2023/07/10 10:48:36;;;;;;;6.80;3.10;;;;;;;31.59;35.93;95112.44;5089945;28;20181;-46
2023/07/10 10:51:19;;;;;;;3.17;2.92;;;;;;;31.62;35.85;95114.56;5100725;28;20192;-44
2023/07/10 10:53:54;;;;;;;6.38;3.05;;;;;;;31.46;35.44;95092.56;5093748;28;20217;-45
2023/07/10 10:56:25;;;;;;;3.28;2.90;;;;;;;31.39;35.26;95092.00;5089815;28;20640;-45
2023/07/10 10:59:24;;;;;;;3.33;2.65;;;;;;;31.48;33.85;95108.97;5102936;28;20197;-45
2023/07/10 11:02:02;;;;;;;3.08;2.70;;;;;;;31.38;33.28;95107.06;5105697;28;20197;-43
2023/07/10 11:04:36;;;;;;;6.10;2.85;;;;;;;31.38;33.88;95104.41;5099877;28;20203;-43
2023/07/10 11:07:06;;;;;;;4.03;2.88;;;;;;;31.57;34.54;95103.97;5100705;28;20222;-44
2023/07/10 11:09:37;;;;;;;4.38;2.72;;;;;;;31.68;34.63;95100.28;5106417;28;20177;-44
2023/07/10 11:12:06;;;;;;;4.70;2.80;;;;;;;31.51;34.83;95074.06;5106399;28;20197;-45
2023/07/10 11:14:33;;;;;;;7.35;3.30;;;;;;;31.57;35.14;95096.03;5107173;28;20219;-43
2023/07/10 11:17:01;;;;;;;3.65;2.70;;;;;;;31.57;35.15;95098.69;5105826;28;20687;-45
2023/07/10 11:19:31;;;;;;;4.25;2.95;;;;;;;31.58;34.96;95092.34;5104474;28;20649;-45
2023/07/10 11:22:12;;;;;;;4.30;2.97;;;;;;;31.61;34.81;95089.97;5106432;28;20193;-45
2023/07/10 11:24:47;;;;;;;4.40;2.85;;;;;;;31.55;35.13;95084.91;5105806;28;20513;-45
2023/07/10 11:27:22;;;;;;;4.30;2.92;;;;;;;31.59;34.43;95084.13;5106054;28;20192;-46
2023/07/10 11:29:55;;;;;;;3.63;3.22;;;;;;;31.56;34.68;95078.56;5106727;28;20463;-45
2023/07/10 11:32:26;;;;;;;3.05;2.83;;;;;;;31.67;33.96;95082.84;5102705;28;20931;-45
2023/07/10 11:35:09;;;;;;;3.25;2.95;;;;;;;31.66;33.85;95079.41;5105323;28;20337;-44
2023/07/10 11:38:09;;;;;;;3.17;2.85;;;;;;;31.62;33.87;95072.25;5103143;28;20572;-45
2023/07/10 11:41:10;;;;;;;6.13;3.00;;;;;;;31.68;34.47;95079.94;5103609;28;20587;-43
2023/07/10 11:44:09;;;;;;;3.38;2.60;;;;;;;31.73;33.38;95081.78;5107262;28;20235;-43